Eindhoven, Nederland

12:07 PM CEST op 29 september 2016 (GMT +0200)
Eindhoven Air Base | | Change Station

Hoogte 72 ft 51.45 °N, 5.38 °E | Updated 12 minutes ago

Overcast
Geheel bewolkt
64 °F
Voelt als 64 °F
N
16
Wind Variabel Wind van ZW

Vandaag
Hoog -- | Laag -- °F
--% Kans op neerslag
Gisteren
Hoog -- | Laag -- °F
Precip. -- inches
Druk 30.01 inches
Zicht 6.2 mijlen
Wolken Geheel bewolkt 2200 ft
Dauwpunt 54 °F
Vochtigheid 68%
Neerslag 0.00 inches
Dikte sneeuw Niet beschikbaar.
7:36 AM 7:19 PM
Afnemende halvemaan, 2% visible
METAR EHEH 290955Z AUTO 22014KT 200V260 9999 OVC022 18/12 Q1016 WHT 23016G26KT 9999 BKN022 BKN030
Druk 30.01 inches
Zicht 6.2 mijlen
Wolken Geheel bewolkt 2200 ft
Dauwpunt 54 °F
Vochtigheid 68%
Neerslag 0.00 inches
Dikte sneeuw Niet beschikbaar.
7:36 AM 7:19 PM
Afnemende halvemaan, 2% visible
METAR EHEH 290955Z AUTO 22014KT 200V260 9999 OVC022 18/12 Q1016 WHT 23016G26KT 9999 BKN022 BKN030

10-Day Weather Forecast

×

Almanac

Astronomie

Sep. 29, 2016 Opkomst Ondergang
Werkelijke tijd
Burgerlijke schemering
Nautische schemering
Astronomische schemering
Maan
Golflengte van het zichtbare licht
Daglengte
Tomorrow will be .
, % of the Moon is Illuminated

Extremen vandaag

Country Highs Country Lows

Community

WunderPhotos

Upload Photos

1,942,446 foto’s ge-upload!

WunderBlog® & News

Nearby

Luchtkwaliteit

  Luchtkwaliteit LK-index Verontreinigende stof
Not available.

Dikte sneeuw

Station Depth Geometrische hoogte

Aardbevingen

Stad Distance Mag. Time & Date
Minimum magnitude displayed is 2.5.

Watertemperatuur langs de kust

Plaats Temperatuur

Stations

Nabije weerstations

Locatie station Temp. Gevoelstemperatuur Dauwpunt Vochtigheid Wind Precip. Hoogte Geactualiseerd Type